Date,TemperatureHighF,TemperatureAvgF,TemperatureLowF,DewpointHighF,DewpointAvgF,DewpointLowF,HumidityHigh,HumidityAvg,HumidityLow,PressureMaxIn,PressureMinIn,WindSpeedMaxMPH,WindSpeedAvgMPH,GustSpeedMaxMPH,PrecipitationSumIn
2013-1-1,24.1,18.2,8.4,18.8,12.8,1.7,86,79,69,29.83,29.69,0,0,0,0.00
2013-1-2,33.1,19.6,7.5,25.5,13.8,2.2,86,78,68,29.80,29.65,0,0,0,0.01
2013-1-3,34.9,21.0,9.0,26.7,15.4,4.7,88,79,70,29.97,29.80,0,0,0,0.06
2013-1-4,39.0,24.8,12.7,28.1,18.2,8.4,84,76,64,29.89,29.69,0,0,0,0.01
2013-1-5,43.5,34.6,27.5,33.4,26.9,20.0,85,74,61,29.79,29.59,0,0,0,0.00
2013-1-6,46.6,32.7,17.1,32.0,22.8,12.2,85,68,50,29.90,29.70,0,0,0,0.00
2013-1-7,51.4,40.4,31.8,31.0,25.8,21.4,67,57,46,29.69,29.48,0,0,0,0.00
2013-1-8,55.9,39.6,25.5,35.1,27.8,20.2,80,64,45,29.73,29.42,0,0,0,0.00
2013-1-9,55.0,34.8,21.2,38.4,27.0,17.4,89,75,51,29.94,29.72,0,0,0,0.00
2013-1-10,46.2,42.7,37.9,46.0,40.9,32.0,99,94,76,29.78,29.21,0,0,0,0.45
2013-1-11,56.5,48.4,35.1,47.7,42.9,24.2,99,84,35,29.37,28.98,0,0,17,0.00
2013-1-12,35.1,25.4,17.6,27.2,13.4,7.2,73,61,50,29.67,29.39,0,0,0,0.00
2013-1-13,27.3,17.9,10.8,9.0,5.9,3.0,70,60,45,29.86,29.65,0,0,0,0.00
2013-1-14,30.6,19.2,7.0,17.3,8.5,1.2,80,64,46,29.99,29.84,0,0,0,0.00
2013-1-15,39.6,24.2,13.3,23.4,13.2,7.2,80,64,44,29.86,29.66,0,0,0,0.00
2013-1-16,54.1,34.0,17.8,34.7,23.1,10.3,80,66,47,29.77,29.55,8,0,8,0.00
2013-1-17,56.1,36.9,19.6,39.0,25.5,15.3,89,66,41,30.00,29.78,5,0,5,0.00
2013-1-18,62.6,45.4,30.6,34.7,30.0,22.9,79,59,34,29.86,29.52,11,1,30,0.01
2013-1-19,61.0,41.5,25.7,33.7,26.4,16.4,82,59,32,29.78,29.49,0,0,0,0.00
2013-1-20,43.0,29.5,18.0,25.7,16.9,6.0,79,61,40,29.94,29.75,0,0,0,0.00
2013-1-21,39.2,23.6,12.4,20.6,11.2,5.7,78,61,39,29.94,29.77,0,0,0,0.00
2013-1-22,37.0,22.4,12.7,16.8,9.6,4.5,71,59,43,29.82,29.69,0,0,0,0.00
2013-1-23,48.9,29.6,13.1,31.9,17.6,7.1,81,63,42,29.90,29.66,0,0,0,0.00
2013-1-24,30.0,23.2,14.0,14.8,7.9,3.9,71,54,35,29.94,29.65,3,0,5,0.00
2013-1-25,52.0,32.8,16.0,27.0,17.7,7.4,76,56,39,29.77,29.65,0,0,0,0.00
2013-1-26,60.1,45.4,27.3,38.8,28.0,18.6,82,55,27,29.73,29.48,4,0,5,0.02
2013-1-27,65.8,49.4,35.6,58.9,45.2,31.7,99,86,64,29.48,29.18,0,0,1,0.00
2013-1-28,73.6,54.0,30.9,61.6,46.0,28.4,99,78,40,29.35,29.11,0,0,0,0.00
2013-1-29,64.4,39.3,32.5,61.1,35.6,31.1,95,87,70,29.24,29.08,0,0,0,0.00
2013-1-30,32.2,25.4,14.5,31.3,21.0,9.8,97,83,70,29.49,29.19,0,0,0,0.00
2013-1-31,27.3,19.1,7.0,23.2,12.0,0.2,86,74,57,29.95,29.43,0,0,0,0.00